TPSO2: TIPTON

Data processed at Mon Sep 24 2018 21:32


All information presented herein is the property of the government of the United States of America and may be revised or deleted at any time without prior notice.
Dissemination of this information without the expressed written consent of the Public Affairs Office, Tulsa District U.S. Army Corps of Engineers is strictly prohibited.
These data are gathered electronically and, as presented, have not undergone any form of quality control. These data are not guaranteed to be valid or correct.
Go to home page.
Go to station list.
Go to home page.

Downstream station:


Previous Day
Next Day
Current Day
    
SHEF ID:       TIPO2     North Fork Red River near Tipton
STATION TYPE:  

                STAGE  RIV-FLOW   VOLTAGE  BAT-LOAD
                   ft       cfs      volt      volt
              Ccp-Rev   Ccp-Rev   Ccp-Rev   Ccp-Rev
(US/Central)
09/24 00:00      6.61       292     12.65     12.49
09/24 01:00      6.57       281     12.65     12.49
09/24 02:00      6.53       271     12.65     12.49
09/24 03:00      6.50       263     12.65     12.41
09/24 04:00      6.47       255     12.57     12.41
09/24 05:00      6.44       247     12.57     12.41
09/24 06:00      6.41       240     12.57     12.41
09/24 07:00      6.38       233     12.57     12.41
09/24 08:00      6.36       228     12.57     12.41
09/24 09:00      6.33       221     12.65     12.41
09/24 10:00      6.31       216     12.97     12.73
09/24 11:00      6.28       209     13.05     12.89
09/24 12:00      6.26       204     13.21     12.97
09/24 13:00      6.22       195     13.44     13.21
09/24 14:00      6.17       185     13.53     13.21
09/24 15:00      6.16       182     13.44     13.21
09/24 16:00      6.16       182     13.37     13.13
09/24 17:00      6.11       172     14.00     13.05
09/24 18:00      6.09       168     13.92     13.05
09/24 19:00      6.15       180     12.89     12.89
09/24 20:00      6.14       178     12.73     12.57
09/24 21:00      ----      ----      ----      ----
09/24 22:00      ----      ----      ----      ----
09/24 23:00      ----      ----      ----      ----